Southampton, NY

4:01 PM EDT on August 29, 2015 (GMT -0400)
Shinnecock Hills | | Change Station
CLOSE
Current Station
Personal Weather Station
Location: Southampton, NY
Elevation: 20 ft
Nearby Weather Stations

Elev 20 ft 40.90 °N, 72.44 °W | Updated 1 minute ago

Partly Cloudy
Partly Cloudy
82.1 °F
Feels Like 85 °F
N
0.0
Wind Variable Wind from South
Gusts 6.0 mph

Today
High -- | Low -- °F
--% Chance of Precip.
Yesterday
High -- | Low -- °F
Precip. -- in
6:13 AM 7:27 PM
Full, 100% visible
Pressure 30.15 in
Visibility 10.0 miles
Clouds Clear
Heat Index 85 °F
Dew Point 69 °F
Humidity 64%
Rainfall Not available.
Snow Depth Not available.
UV 5 out of 12
Pollen 9.30 out of 12
Air Quality Not available.
Flu Activity Not available.
METAR KFOK 291953Z 21012G17KT 10SM CLR 27/13 A3015 RMK AO2 SLP208 T02720133
Pressure 30.15 in
Visibility 10.0 miles
Clouds Clear
Heat Index 85 °F
Dew Point 69 °F
Humidity 64%
Rainfall Not available.
Snow Depth Not available.
UV 5 out of 12
Pollen 9.30 out of 12
Air Quality Not available.
Flu Activity Not available.
METAR KFOK 291953Z 21012G17KT 10SM CLR 27/13 A3015 RMK AO2 SLP208 T02720133

10-Day Weather Forecast

×

Almanac

Astronomy

Aug. 29, 2015 Rise Set
Actual Time
Civil Twilight
Nautical Twilight
Astronomical Twilight
Moon
Length of Visible Light
Length of Day
Tomorrow will be .
, % of the Moon is Illuminated

Today's Extremes

State Highs State Lows

Community

WunderPhotos

Upload Photos

1,850,793 photos uploaded!

WunderBlogs® & News

Nearby

Air Quality

  Air Quality AQ Index Pollutant
Not available.

Snow Depth

Station Depth Elevation

Earthquake Activity

City Distance Mag. Time & Date
Minimum magnitude displayed is 2.5.

Coastal Water Temperatures

Place Temperature

Stations

Nearby Weather Stations

Station Location Temp. Windchill Dew Point Humidity Wind Precip. Elev Updated Type